Annapolis, California
Current Conditions -  °F | °C
As of 1:56 AM on Monday 20 Oct 2014 (Local Time) from KUKI Reporting Station
Overcast Overcast  
Wind Chill: 57°   Ceiling: 3600
Heat Index: 57°   Visibility: 10mi
Dew Point: 53°   Wind: 0mph
Humidity: 87%   Direction: NA
Pressure: 29.9"   Gusts: NA
Location:  38.71°N, 123.35°W
Report Text: KUKI 200856Z AUTO 00000KT 10SM BKN036 OVC044 14/12 A2990 RMK AO2 SLP117 T01390117 51005
Loading
Personal Weather Stations






























Interactive Weather Map
Tropical Storm Tracking
New forecast layout! Learn more

10-Day Weather Forecast

Advertisements
Track Severe Weather on mobile